sensor_id;sensor_type;location;lat;lon;timestamp;pressure;altitude;pressure_sealevel;temperature;humidity
71165;BME280;58859;55.132;-1.586;2023-07-13T00:01:46;100536.56;;;18.38;100.00
71165;BME280;58859;55.132;-1.586;2023-07-13T00:04:16;100530.81;;;19.20;100.00
71165;BME280;58859;55.132;-1.586;2023-07-13T00:06:41;100533.47;;;19.14;100.00
71165;BME280;58859;55.132;-1.586;2023-07-13T00:09:16;100531.97;;;19.88;100.00
71165;BME280;58859;55.132;-1.586;2023-07-13T00:11:42;100534.91;;;19.10;100.00
71165;BME280;58859;55.132;-1.586;2023-07-13T00:14:09;100540.00;;;18.91;100.00
71165;BME280;58859;55.132;-1.586;2023-07-13T00:16:36;100542.41;;;19.00;100.00
71165;BME280;58859;55.132;-1.586;2023-07-13T00:19:02;100546.06;;;18.39;100.00
71165;BME280;58859;55.132;-1.586;2023-07-13T00:21:28;100550.31;;;18.34;100.00
71165;BME280;58859;55.132;-1.586;2023-07-13T00:23:54;100544.66;;;18.96;100.00
71165;BME280;58859;55.132;-1.586;2023-07-13T00:26:19;100552.31;;;20.13;100.00
71165;BME280;58859;55.132;-1.586;2023-07-13T00:28:44;100545.38;;;19.49;100.00
71165;BME280;58859;55.132;-1.586;2023-07-13T00:31:12;100542.00;;;20.67;100.00
71165;BME280;58859;55.132;-1.586;2023-07-13T00:33:39;100547.00;;;20.19;100.00
71165;BME280;58859;55.132;-1.586;2023-07-13T00:36:06;100557.47;;;20.01;100.00
71165;BME280;58859;55.132;-1.586;2023-07-13T00:38:31;100551.69;;;19.86;100.00
71165;BME280;58859;55.132;-1.586;2023-07-13T00:40:57;100557.50;;;19.57;100.00
71165;BME280;58859;55.132;-1.586;2023-07-13T00:43:25;100556.31;;;19.46;100.00
71165;BME280;58859;55.132;-1.586;2023-07-13T00:48:21;100556.03;;;18.83;100.00
71165;BME280;58859;55.132;-1.586;2023-07-13T00:50:52;100565.50;;;18.45;100.00
71165;BME280;58859;55.132;-1.586;2023-07-13T00:53:19;100555.41;;;18.68;100.00
71165;BME280;58859;55.132;-1.586;2023-07-13T00:55:47;100558.22;;;19.13;100.00
71165;BME280;58859;55.132;-1.586;2023-07-13T00:58:13;100561.91;;;18.53;100.00
71165;BME280;58859;55.132;-1.586;2023-07-13T01:00:39;100559.19;;;18.20;100.00
71165;BME280;58859;55.132;-1.586;2023-07-13T01:03:06;100558.22;;;18.27;100.00
71165;BME280;58859;55.132;-1.586;2023-07-13T01:05:33;100564.56;;;18.53;100.00
71165;BME280;58859;55.132;-1.586;2023-07-13T01:08:01;100570.72;;;18.06;100.00
71165;BME280;58859;55.132;-1.586;2023-07-13T01:10:27;100572.66;;;18.64;100.00
71165;BME280;58859;55.132;-1.586;2023-07-13T01:12:53;100567.50;;;19.22;100.00
71165;BME280;58859;55.132;-1.586;2023-07-13T01:15:45;100562.13;;;18.64;100.00
71165;BME280;58859;55.132;-1.586;2023-07-13T01:18:14;100568.72;;;19.26;100.00
71165;BME280;58859;55.132;-1.586;2023-07-13T01:20:41;100572.84;;;18.63;100.00
71165;BME280;58859;55.132;-1.586;2023-07-13T01:23:10;100574.38;;;18.05;100.00
71165;BME280;58859;55.132;-1.586;2023-07-13T01:25:36;100577.16;;;17.90;100.00
71165;BME280;58859;55.132;-1.586;2023-07-13T01:28:07;100584.00;;;18.65;100.00
71165;BME280;58859;55.132;-1.586;2023-07-13T01:30:34;100587.47;;;18.78;100.00
71165;BME280;58859;55.132;-1.586;2023-07-13T01:33:00;100585.63;;;18.53;100.00
71165;BME280;58859;55.132;-1.586;2023-07-13T01:35:25;100579.91;;;18.36;100.00
71165;BME280;58859;55.132;-1.586;2023-07-13T01:37:52;100582.44;;;17.90;100.00
71165;BME280;58859;55.132;-1.586;2023-07-13T01:40:18;100586.72;;;18.11;100.00
71165;BME280;58859;55.132;-1.586;2023-07-13T01:42:43;100588.66;;;18.56;100.00
71165;BME280;58859;55.132;-1.586;2023-07-13T01:45:09;100587.31;;;18.06;100.00
71165;BME280;58859;55.132;-1.586;2023-07-13T01:47:35;100593.09;;;19.02;100.00
71165;BME280;58859;55.132;-1.586;2023-07-13T01:50:00;100585.09;;;18.16;100.00
71165;BME280;58859;55.132;-1.586;2023-07-13T01:52:26;100581.94;;;17.67;100.00
71165;BME280;58859;55.132;-1.586;2023-07-13T01:54:51;100585.34;;;18.21;100.00
71165;BME280;58859;55.132;-1.586;2023-07-13T01:57:17;100587.84;;;18.56;100.00
71165;BME280;58859;55.132;-1.586;2023-07-13T01:59:42;100582.44;;;17.97;100.00
71165;BME280;58859;55.132;-1.586;2023-07-13T02:02:07;100584.78;;;17.72;100.00
71165;BME280;58859;55.132;-1.586;2023-07-13T02:04:33;100581.28;;;18.19;100.00
71165;BME280;58859;55.132;-1.586;2023-07-13T02:06:59;100567.09;;;18.13;100.00
71165;BME280;58859;55.132;-1.586;2023-07-13T02:09:24;100591.66;;;18.40;100.00
71165;BME280;58859;55.132;-1.586;2023-07-13T02:11:50;100598.75;;;17.38;100.00
71165;BME280;58859;55.132;-1.586;2023-07-13T02:14:15;100598.00;;;18.59;100.00
71165;BME280;58859;55.132;-1.586;2023-07-13T02:16:41;100599.34;;;17.74;100.00
71165;BME280;58859;55.132;-1.586;2023-07-13T02:19:07;100595.09;;;17.67;100.00
71165;BME280;58859;55.132;-1.586;2023-07-13T02:21:32;100599.28;;;18.09;100.00
71165;BME280;58859;55.132;-1.586;2023-07-13T02:23:58;100600.00;;;17.49;100.00
71165;BME280;58859;55.132;-1.586;2023-07-13T02:26:23;100603.94;;;17.32;100.00
71165;BME280;58859;55.132;-1.586;2023-07-13T02:28:49;100602.03;;;17.47;100.00
71165;BME280;58859;55.132;-1.586;2023-07-13T02:31:15;100606.84;;;17.09;100.00
71165;BME280;58859;55.132;-1.586;2023-07-13T02:33:41;100606.56;;;17.25;100.00
71165;BME280;58859;55.132;-1.586;2023-07-13T02:36:07;100600.00;;;19.03;100.00
71165;BME280;58859;55.132;-1.586;2023-07-13T02:38:33;100603.50;;;18.03;100.00
71165;BME280;58859;55.132;-1.586;2023-07-13T02:41:00;100607.69;;;18.52;100.00
71165;BME280;58859;55.132;-1.586;2023-07-13T02:43:27;100594.94;;;18.68;100.00
71165;BME280;58859;55.132;-1.586;2023-07-13T02:45:52;100598.22;;;17.97;100.00
71165;BME280;58859;55.132;-1.586;2023-07-13T02:48:17;100610.19;;;17.24;100.00
71165;BME280;58859;55.132;-1.586;2023-07-13T02:50:44;100601.63;;;18.71;100.00
71165;BME280;58859;55.132;-1.586;2023-07-13T02:53:10;100602.28;;;17.93;100.00
71165;BME280;58859;55.132;-1.586;2023-07-13T02:55:35;100607.31;;;17.88;100.00
71165;BME280;58859;55.132;-1.586;2023-07-13T02:58:01;100610.50;;;17.08;100.00
71165;BME280;58859;55.132;-1.586;2023-07-13T03:00:27;100610.47;;;17.70;100.00
71165;BME280;58859;55.132;-1.586;2023-07-13T03:02:53;100606.13;;;17.97;100.00
71165;BME280;58859;55.132;-1.586;2023-07-13T03:05:18;100613.31;;;17.75;100.00
71165;BME280;58859;55.132;-1.586;2023-07-13T03:07:44;100610.81;;;18.01;100.00
71165;BME280;58859;55.132;-1.586;2023-07-13T03:10:10;100615.47;;;18.06;100.00
71165;BME280;58859;55.132;-1.586;2023-07-13T03:12:35;100620.22;;;18.43;100.00
71165;BME280;58859;55.132;-1.586;2023-07-13T03:15:00;100615.59;;;19.11;100.00
71165;BME280;58859;55.132;-1.586;2023-07-13T03:17:26;100616.25;;;18.00;100.00
71165;BME280;58859;55.132;-1.586;2023-07-13T03:19:51;100610.25;;;18.25;100.00
71165;BME280;58859;55.132;-1.586;2023-07-13T03:22:17;100616.00;;;18.49;100.00
71165;BME280;58859;55.132;-1.586;2023-07-13T03:24:44;100618.66;;;18.88;100.00
71165;BME280;58859;55.132;-1.586;2023-07-13T03:27:10;100623.75;;;18.03;100.00
71165;BME280;58859;55.132;-1.586;2023-07-13T03:29:35;100624.69;;;17.48;100.00
71165;BME280;58859;55.132;-1.586;2023-07-13T03:32:01;100623.34;;;16.96;100.00
71165;BME280;58859;55.132;-1.586;2023-07-13T03:34:26;100627.00;;;17.57;100.00
71165;BME280;58859;55.132;-1.586;2023-07-13T03:36:54;100632.06;;;16.54;100.00
71165;BME280;58859;55.132;-1.586;2023-07-13T03:39:20;100629.72;;;17.77;100.00
71165;BME280;58859;55.132;-1.586;2023-07-13T03:41:46;100631.34;;;16.67;100.00
71165;BME280;58859;55.132;-1.586;2023-07-13T03:44:11;100632.56;;;16.86;100.00
71165;BME280;58859;55.132;-1.586;2023-07-13T03:46:37;100623.81;;;17.06;100.00
71165;BME280;58859;55.132;-1.586;2023-07-13T03:49:04;100634.06;;;17.29;100.00
71165;BME280;58859;55.132;-1.586;2023-07-13T03:51:30;100635.69;;;16.39;100.00
71165;BME280;58859;55.132;-1.586;2023-07-13T03:53:56;100625.19;;;18.12;100.00
71165;BME280;58859;55.132;-1.586;2023-07-13T03:56:22;100635.03;;;17.84;100.00
71165;BME280;58859;55.132;-1.586;2023-07-13T03:58:49;100634.38;;;17.75;100.00
71165;BME280;58859;55.132;-1.586;2023-07-13T04:01:16;100626.41;;;17.00;100.00
71165;BME280;58859;55.132;-1.586;2023-07-13T04:03:42;100622.53;;;18.99;100.00
71165;BME280;58859;55.132;-1.586;2023-07-13T04:06:14;100622.56;;;18.12;100.00
71165;BME280;58859;55.132;-1.586;2023-07-13T04:08:41;100643.69;;;16.88;100.00
71165;BME280;58859;55.132;-1.586;2023-07-13T04:11:06;100643.34;;;16.55;100.00
71165;BME280;58859;55.132;-1.586;2023-07-13T04:13:32;100632.78;;;16.48;100.00
71165;BME280;58859;55.132;-1.586;2023-07-13T04:15:58;100632.47;;;16.37;100.00
71165;BME280;58859;55.132;-1.586;2023-07-13T04:18:23;100638.00;;;16.27;100.00
71165;BME280;58859;55.132;-1.586;2023-07-13T04:20:49;100645.69;;;16.64;100.00
71165;BME280;58859;55.132;-1.586;2023-07-13T04:23:16;100645.59;;;16.37;100.00
71165;BME280;58859;55.132;-1.586;2023-07-13T04:25:46;100650.47;;;16.40;100.00
71165;BME280;58859;55.132;-1.586;2023-07-13T04:28:14;100653.00;;;16.90;100.00
71165;BME280;58859;55.132;-1.586;2023-07-13T04:30:40;100652.44;;;17.50;100.00
71165;BME280;58859;55.132;-1.586;2023-07-13T04:33:05;100659.44;;;16.31;100.00
71165;BME280;58859;55.132;-1.586;2023-07-13T04:35:31;100663.63;;;16.46;100.00
71165;BME280;58859;55.132;-1.586;2023-07-13T04:37:56;100669.56;;;17.67;100.00
71165;BME280;58859;55.132;-1.586;2023-07-13T04:40:22;100671.00;;;16.72;100.00
71165;BME280;58859;55.132;-1.586;2023-07-13T04:42:48;100670.06;;;16.58;100.00
71165;BME280;58859;55.132;-1.586;2023-07-13T04:45:14;100673.44;;;16.74;100.00
71165;BME280;58859;55.132;-1.586;2023-07-13T04:47:40;100676.53;;;16.77;100.00
71165;BME280;58859;55.132;-1.586;2023-07-13T04:50:07;100679.88;;;17.69;100.00
71165;BME280;58859;55.132;-1.586;2023-07-13T04:52:32;100673.41;;;17.71;100.00
71165;BME280;58859;55.132;-1.586;2023-07-13T04:55:00;100676.69;;;16.97;100.00
71165;BME280;58859;55.132;-1.586;2023-07-13T04:57:26;100686.41;;;17.79;100.00
71165;BME280;58859;55.132;-1.586;2023-07-13T04:59:52;100685.44;;;17.32;100.00
71165;BME280;58859;55.132;-1.586;2023-07-13T05:02:17;100686.06;;;17.55;100.00
71165;BME280;58859;55.132;-1.586;2023-07-13T05:04:46;100684.78;;;16.74;100.00
71165;BME280;58859;55.132;-1.586;2023-07-13T05:07:11;100680.81;;;16.63;100.00
71165;BME280;58859;55.132;-1.586;2023-07-13T05:09:37;100690.06;;;17.02;100.00
71165;BME280;58859;55.132;-1.586;2023-07-13T05:12:02;100682.38;;;17.00;100.00
71165;BME280;58859;55.132;-1.586;2023-07-13T05:14:28;100684.47;;;17.95;100.00
71165;BME280;58859;55.132;-1.586;2023-07-13T05:16:54;100674.38;;;17.08;100.00
71165;BME280;58859;55.132;-1.586;2023-07-13T05:19:19;100674.38;;;17.08;100.00
71165;BME280;58859;55.132;-1.586;2023-07-13T05:21:44;100673.84;;;17.19;100.00
71165;BME280;58859;55.132;-1.586;2023-07-13T05:24:10;100682.16;;;16.74;100.00
71165;BME280;58859;55.132;-1.586;2023-07-13T05:26:35;100687.91;;;17.33;100.00
71165;BME280;58859;55.132;-1.586;2023-07-13T05:29:01;100688.13;;;16.89;100.00
71165;BME280;58859;55.132;-1.586;2023-07-13T05:31:26;100690.06;;;17.78;100.00
71165;BME280;58859;55.132;-1.586;2023-07-13T05:33:53;100698.16;;;18.24;100.00
71165;BME280;58859;55.132;-1.586;2023-07-13T05:36:18;100680.94;;;18.22;100.00
71165;BME280;58859;55.132;-1.586;2023-07-13T05:38:43;100703.97;;;17.45;100.00
71165;BME280;58859;55.132;-1.586;2023-07-13T05:41:09;100698.69;;;18.07;100.00
71165;BME280;58859;55.132;-1.586;2023-07-13T05:43:34;100701.88;;;17.34;100.00
71165;BME280;58859;55.132;-1.586;2023-07-13T05:46:00;100705.97;;;17.43;100.00
71165;BME280;58859;55.132;-1.586;2023-07-13T05:48:25;100706.53;;;18.00;100.00
71165;BME280;58859;55.132;-1.586;2023-07-13T05:50:51;100713.56;;;17.87;100.00
71165;BME280;58859;55.132;-1.586;2023-07-13T05:53:16;100710.53;;;19.04;100.00
71165;BME280;58859;55.132;-1.586;2023-07-13T05:55:42;100724.53;;;17.90;100.00
71165;BME280;58859;55.132;-1.586;2023-07-13T05:58:08;100723.84;;;18.22;100.00
71165;BME280;58859;55.132;-1.586;2023-07-13T06:00:34;100735.41;;;18.21;100.00
71165;BME280;58859;55.132;-1.586;2023-07-13T06:02:59;100736.06;;;18.30;100.00
71165;BME280;58859;55.132;-1.586;2023-07-13T06:05:25;100734.78;;;18.19;100.00
71165;BME280;58859;55.132;-1.586;2023-07-13T06:07:52;100730.31;;;18.13;100.00
71165;BME280;58859;55.132;-1.586;2023-07-13T06:10:17;100732.66;;;19.42;100.00
71165;BME280;58859;55.132;-1.586;2023-07-13T06:12:43;100732.59;;;18.97;100.00
71165;BME280;58859;55.132;-1.586;2023-07-13T06:15:08;100732.19;;;18.80;100.00
71165;BME280;58859;55.132;-1.586;2023-07-13T06:17:34;100737.81;;;18.64;100.00
71165;BME280;58859;55.132;-1.586;2023-07-13T06:19:59;100744.19;;;18.96;100.00
71165;BME280;58859;55.132;-1.586;2023-07-13T06:22:25;100744.34;;;18.87;100.00
71165;BME280;58859;55.132;-1.586;2023-07-13T06:24:51;100743.88;;;18.58;100.00
71165;BME280;58859;55.132;-1.586;2023-07-13T06:27:16;100748.25;;;18.98;100.00
71165;BME280;58859;55.132;-1.586;2023-07-13T06:29:42;100761.84;;;19.34;100.00
71165;BME280;58859;55.132;-1.586;2023-07-13T06:32:10;100745.44;;;19.65;100.00
71165;BME280;58859;55.132;-1.586;2023-07-13T06:34:35;100745.84;;;20.46;100.00
71165;BME280;58859;55.132;-1.586;2023-07-13T06:37:01;100749.16;;;20.35;100.00
71165;BME280;58859;55.132;-1.586;2023-07-13T06:39:26;100744.44;;;19.60;100.00
71165;BME280;58859;55.132;-1.586;2023-07-13T06:41:51;100751.69;;;19.90;100.00
71165;BME280;58859;55.132;-1.586;2023-07-13T06:44:17;100746.50;;;20.73;100.00
71165;BME280;58859;55.132;-1.586;2023-07-13T06:46:42;100749.22;;;20.08;100.00
71165;BME280;58859;55.132;-1.586;2023-07-13T06:49:09;100722.78;;;20.08;100.00
71165;BME280;58859;55.132;-1.586;2023-07-13T06:51:34;100755.00;;;20.81;100.00
71165;BME280;58859;55.132;-1.586;2023-07-13T06:54:00;100755.38;;;20.85;100.00
71165;BME280;58859;55.132;-1.586;2023-07-13T06:56:25;100749.69;;;20.88;100.00
71165;BME280;58859;55.132;-1.586;2023-07-13T06:58:51;100748.66;;;20.89;100.00
71165;BME280;58859;55.132;-1.586;2023-07-13T07:01:16;100750.25;;;21.28;100.00
71165;BME280;58859;55.132;-1.586;2023-07-13T07:03:41;100759.09;;;21.64;100.00
71165;BME280;58859;55.132;-1.586;2023-07-13T07:06:18;100759.19;;;20.95;100.00
71165;BME280;58859;55.132;-1.586;2023-07-13T07:08:45;100762.84;;;21.75;100.00
71165;BME280;58859;55.132;-1.586;2023-07-13T07:11:16;100771.72;;;22.05;100.00
71165;BME280;58859;55.132;-1.586;2023-07-13T07:13:42;100774.75;;;22.09;100.00
71165;BME280;58859;55.132;-1.586;2023-07-13T07:16:07;100774.34;;;22.78;100.00
71165;BME280;58859;55.132;-1.586;2023-07-13T07:18:34;100773.44;;;22.18;100.00
71165;BME280;58859;55.132;-1.586;2023-07-13T07:21:00;100772.50;;;22.60;100.00
71165;BME280;58859;55.132;-1.586;2023-07-13T07:23:25;100780.00;;;22.63;100.00
71165;BME280;58859;55.132;-1.586;2023-07-13T07:25:51;100787.38;;;22.79;100.00
71165;BME280;58859;55.132;-1.586;2023-07-13T07:28:17;100786.44;;;22.56;100.00
71165;BME280;58859;55.132;-1.586;2023-07-13T07:30:46;100786.50;;;22.97;100.00
71165;BME280;58859;55.132;-1.586;2023-07-13T07:33:12;100785.09;;;23.24;100.00
71165;BME280;58859;55.132;-1.586;2023-07-13T07:35:38;100792.75;;;23.03;100.00
71165;BME280;58859;55.132;-1.586;2023-07-13T07:38:03;100800.31;;;22.87;100.00
71165;BME280;58859;55.132;-1.586;2023-07-13T07:40:29;100795.19;;;23.57;100.00
71165;BME280;58859;55.132;-1.586;2023-07-13T07:42:54;100798.09;;;23.79;100.00
71165;BME280;58859;55.132;-1.586;2023-07-13T07:45:20;100792.56;;;23.80;100.00
71165;BME280;58859;55.132;-1.586;2023-07-13T07:47:45;100797.41;;;23.60;100.00
71165;BME280;58859;55.132;-1.586;2023-07-13T07:50:11;100797.47;;;23.42;100.00
71165;BME280;58859;55.132;-1.586;2023-07-13T07:52:36;100795.06;;;23.40;100.00
71165;BME280;58859;55.132;-1.586;2023-07-13T07:55:04;100805.38;;;23.19;100.00
71165;BME280;58859;55.132;-1.586;2023-07-13T07:57:30;100810.44;;;23.62;100.00
71165;BME280;58859;55.132;-1.586;2023-07-13T07:59:55;100807.22;;;23.71;100.00
71165;BME280;58859;55.132;-1.586;2023-07-13T08:02:20;100805.22;;;24.36;100.00
71165;BME280;58859;55.132;-1.586;2023-07-13T08:04:46;100806.22;;;24.87;100.00
71165;BME280;58859;55.132;-1.586;2023-07-13T08:07:11;100801.78;;;24.24;100.00
71165;BME280;58859;55.132;-1.586;2023-07-13T08:09:37;100808.00;;;24.30;100.00
71165;BME280;58859;55.132;-1.586;2023-07-13T08:12:02;100801.31;;;24.16;100.00
71165;BME280;58859;55.132;-1.586;2023-07-13T08:14:28;100803.63;;;24.24;100.00
71165;BME280;58859;55.132;-1.586;2023-07-13T08:16:53;100807.03;;;24.47;100.00
71165;BME280;58859;55.132;-1.586;2023-07-13T08:19:19;100806.59;;;25.07;100.00
71165;BME280;58859;55.132;-1.586;2023-07-13T08:21:44;100800.28;;;24.05;100.00
71165;BME280;58859;55.132;-1.586;2023-07-13T08:24:10;100793.31;;;24.39;100.00
71165;BME280;58859;55.132;-1.586;2023-07-13T08:26:35;100799.03;;;24.59;100.00
71165;BME280;58859;55.132;-1.586;2023-07-13T08:29:01;100795.66;;;24.00;100.00
71165;BME280;58859;55.132;-1.586;2023-07-13T08:31:28;100803.00;;;24.85;100.00
71165;BME280;58859;55.132;-1.586;2023-07-13T08:33:53;100805.69;;;25.01;100.00
71165;BME280;58859;55.132;-1.586;2023-07-13T08:36:19;100809.66;;;24.59;100.00
71165;BME280;58859;55.132;-1.586;2023-07-13T08:38:44;100809.06;;;24.80;100.00
71165;BME280;58859;55.132;-1.586;2023-07-13T08:41:17;100809.53;;;24.26;100.00
71165;BME280;58859;55.132;-1.586;2023-07-13T08:43:50;100808.75;;;24.53;100.00
71165;BME280;58859;55.132;-1.586;2023-07-13T08:46:27;100809.34;;;24.84;100.00
71165;BME280;58859;55.132;-1.586;2023-07-13T08:48:56;100814.94;;;25.27;100.00
71165;BME280;58859;55.132;-1.586;2023-07-13T08:54:10;100812.03;;;24.84;100.00
71165;BME280;58859;55.132;-1.586;2023-07-13T08:56:37;100802.88;;;25.53;100.00
71165;BME280;58859;55.132;-1.586;2023-07-13T08:59:13;100807.97;;;25.09;100.00
71165;BME280;58859;55.132;-1.586;2023-07-13T09:02:04;100813.19;;;25.66;100.00
71165;BME280;58859;55.132;-1.586;2023-07-13T09:04:53;100817.00;;;25.70;100.00
71165;BME280;58859;55.132;-1.586;2023-07-13T09:15:37;100815.41;;;25.41;100.00
71165;BME280;58859;55.132;-1.586;2023-07-13T09:21:29;100827.75;;;25.30;100.00
71165;BME280;58859;55.132;-1.586;2023-07-13T09:24:01;100827.22;;;25.45;100.00
71165;BME280;58859;55.132;-1.586;2023-07-13T09:26:32;100828.22;;;25.10;100.00
71165;BME280;58859;55.132;-1.586;2023-07-13T09:29:14;100828.28;;;25.94;100.00
71165;BME280;58859;55.132;-1.586;2023-07-13T09:31:49;100823.03;;;25.82;100.00
71165;BME280;58859;55.132;-1.586;2023-07-13T09:34:18;100836.59;;;25.64;100.00
71165;BME280;58859;55.132;-1.586;2023-07-13T09:36:43;100839.03;;;25.21;100.00
71165;BME280;58859;55.132;-1.586;2023-07-13T09:39:37;100829.81;;;25.73;100.00
71165;BME280;58859;55.132;-1.586;2023-07-13T09:42:11;100838.38;;;25.75;100.00
71165;BME280;58859;55.132;-1.586;2023-07-13T09:45:01;100838.13;;;25.60;100.00
71165;BME280;58859;55.132;-1.586;2023-07-13T09:47:37;100836.31;;;25.32;100.00
71165;BME280;58859;55.132;-1.586;2023-07-13T09:50:06;100845.84;;;24.83;100.00
71165;BME280;58859;55.132;-1.586;2023-07-13T09:52:45;100843.66;;;24.80;100.00
71165;BME280;58859;55.132;-1.586;2023-07-13T09:57:50;100852.19;;;25.72;100.00
71165;BME280;58859;55.132;-1.586;2023-07-13T10:00:26;100856.22;;;25.58;100.00
71165;BME280;58859;55.132;-1.586;2023-07-13T10:03:04;100857.44;;;26.39;100.00
71165;BME280;58859;55.132;-1.586;2023-07-13T10:05:50;100864.47;;;26.88;100.00
71165;BME280;58859;55.132;-1.586;2023-07-13T10:10:58;100861.91;;;26.76;100.00
71165;BME280;58859;55.132;-1.586;2023-07-13T10:13:46;100867.00;;;26.78;100.00
71165;BME280;58859;55.132;-1.586;2023-07-13T10:16:14;100863.50;;;25.79;100.00
71165;BME280;58859;55.132;-1.586;2023-07-13T10:18:46;100855.19;;;25.59;100.00
71165;BME280;58859;55.132;-1.586;2023-07-13T10:21:17;100867.84;;;25.52;100.00
71165;BME280;58859;55.132;-1.586;2023-07-13T10:23:46;100869.28;;;25.43;100.00
71165;BME280;58859;55.132;-1.586;2023-07-13T10:26:18;100875.06;;;25.51;100.00
71165;BME280;58859;55.132;-1.586;2023-07-13T10:28:52;100871.50;;;26.34;100.00
71165;BME280;58859;55.132;-1.586;2023-07-13T10:31:20;100874.78;;;26.03;100.00
71165;BME280;58859;55.132;-1.586;2023-07-13T10:33:46;100884.66;;;25.69;100.00
71165;BME280;58859;55.132;-1.586;2023-07-13T10:38:40;100870.97;;;24.41;100.00
71165;BME280;58859;55.132;-1.586;2023-07-13T10:41:11;100884.34;;;25.37;100.00
71165;BME280;58859;55.132;-1.586;2023-07-13T10:43:44;100884.81;;;25.79;100.00
71165;BME280;58859;55.132;-1.586;2023-07-13T10:46:13;100875.25;;;26.00;100.00
71165;BME280;58859;55.132;-1.586;2023-07-13T10:48:41;100871.03;;;26.59;100.00
71165;BME280;58859;55.132;-1.586;2023-07-13T10:51:09;100883.16;;;26.11;100.00
71165;BME280;58859;55.132;-1.586;2023-07-13T10:53:37;100889.72;;;26.04;100.00
71165;BME280;58859;55.132;-1.586;2023-07-13T10:58:41;100885.38;;;26.14;100.00
71165;BME280;58859;55.132;-1.586;2023-07-13T11:01:12;100869.84;;;25.95;100.00
71165;BME280;58859;55.132;-1.586;2023-07-13T11:04:00;100889.25;;;25.57;100.00
71165;BME280;58859;55.132;-1.586;2023-07-13T11:08:56;100886.69;;;25.05;100.00
71165;BME280;58859;55.132;-1.586;2023-07-13T11:21:27;100888.19;;;25.30;100.00
71165;BME280;58859;55.132;-1.586;2023-07-13T11:24:04;100894.19;;;26.15;100.00
71165;BME280;58859;55.132;-1.586;2023-07-13T11:26:43;100894.84;;;25.44;100.00
71165;BME280;58859;55.132;-1.586;2023-07-13T11:31:41;100891.53;;;26.15;100.00
71165;BME280;58859;55.132;-1.586;2023-07-13T11:34:24;100886.94;;;26.70;100.00
71165;BME280;58859;55.132;-1.586;2023-07-13T11:36:52;100894.59;;;25.90;100.00
71165;BME280;58859;55.132;-1.586;2023-07-13T11:41:54;100892.56;;;26.52;100.00
71165;BME280;58859;55.132;-1.586;2023-07-13T11:44:24;100887.06;;;27.29;100.00
71165;BME280;58859;55.132;-1.586;2023-07-13T11:46:55;100891.63;;;26.63;100.00
71165;BME280;58859;55.132;-1.586;2023-07-13T11:49:23;100887.72;;;26.71;100.00
71165;BME280;58859;55.132;-1.586;2023-07-13T11:51:50;100890.16;;;27.16;100.00
71165;BME280;58859;55.132;-1.586;2023-07-13T11:56:52;100882.50;;;26.59;100.00
71165;BME280;58859;55.132;-1.586;2023-07-13T11:59:18;100879.28;;;27.01;100.00
71165;BME280;58859;55.132;-1.586;2023-07-13T12:01:51;100879.75;;;27.19;100.00
71165;BME280;58859;55.132;-1.586;2023-07-13T12:04:27;100880.69;;;26.81;100.00
71165;BME280;58859;55.132;-1.586;2023-07-13T12:07:04;100878.78;;;26.39;100.00
71165;BME280;58859;55.132;-1.586;2023-07-13T12:09:30;100880.31;;;26.35;100.00
71165;BME280;58859;55.132;-1.586;2023-07-13T12:11:57;100865.63;;;26.97;100.00
71165;BME280;58859;55.132;-1.586;2023-07-13T12:14:25;100877.91;;;26.76;100.00
71165;BME280;58859;55.132;-1.586;2023-07-13T12:16:52;100886.72;;;26.77;100.00
71165;BME280;58859;55.132;-1.586;2023-07-13T12:19:24;100882.44;;;26.54;100.00
71165;BME280;58859;55.132;-1.586;2023-07-13T12:21:53;100889.47;;;26.60;100.00
71165;BME280;58859;55.132;-1.586;2023-07-13T12:24:20;100889.53;;;27.62;100.00
71165;BME280;58859;55.132;-1.586;2023-07-13T12:27:06;100888.53;;;26.71;100.00
71165;BME280;58859;55.132;-1.586;2023-07-13T12:29:32;100891.19;;;27.15;100.00
71165;BME280;58859;55.132;-1.586;2023-07-13T12:31:59;100877.53;;;27.38;100.00
71165;BME280;58859;55.132;-1.586;2023-07-13T12:34:26;100875.19;;;27.42;100.00
71165;BME280;58859;55.132;-1.586;2023-07-13T12:36:54;100881.91;;;27.22;100.00
71165;BME280;58859;55.132;-1.586;2023-07-13T12:41:50;100881.47;;;27.04;100.00
71165;BME280;58859;55.132;-1.586;2023-07-13T12:44:18;100877.22;;;26.81;100.00
71165;BME280;58859;55.132;-1.586;2023-07-13T12:46:55;100883.03;;;26.18;100.00
71165;BME280;58859;55.132;-1.586;2023-07-13T12:49:26;100885.78;;;25.90;100.00
71165;BME280;58859;55.132;-1.586;2023-07-13T12:51:58;100877.03;;;25.94;100.00
71165;BME280;58859;55.132;-1.586;2023-07-13T12:54:24;100872.13;;;26.19;100.00
71165;BME280;58859;55.132;-1.586;2023-07-13T12:56:52;100876.22;;;26.27;100.00
71165;BME280;58859;55.132;-1.586;2023-07-13T12:59:21;100872.38;;;26.18;100.00
71165;BME280;58859;55.132;-1.586;2023-07-13T13:01:48;100868.66;;;27.06;100.00
71165;BME280;58859;55.132;-1.586;2023-07-13T13:04:15;100876.81;;;26.51;100.00
71165;BME280;58859;55.132;-1.586;2023-07-13T13:06:41;100868.78;;;26.12;100.00
71165;BME280;58859;55.132;-1.586;2023-07-13T13:09:16;100875.31;;;26.38;100.00
71165;BME280;58859;55.132;-1.586;2023-07-13T13:11:42;100882.28;;;26.22;100.00
71165;BME280;58859;55.132;-1.586;2023-07-13T13:14:08;100876.31;;;25.49;100.00
71165;BME280;58859;55.132;-1.586;2023-07-13T13:16:45;100876.06;;;26.55;100.00
71165;BME280;58859;55.132;-1.586;2023-07-13T13:21:44;100870.34;;;26.47;100.00
71165;BME280;58859;55.132;-1.586;2023-07-13T13:24:16;100865.56;;;26.49;100.00
71165;BME280;58859;55.132;-1.586;2023-07-13T13:26:43;100872.09;;;26.36;100.00